sensor_id;sensor_type;location;lat;lon;timestamp;P1;durP1;ratioP1;P2;durP2;ratioP2
11222;SDS011;5668;52.012;8.724;2023-12-07T00:01:58;20.73;;;18.03;;
11222;SDS011;5668;52.012;8.724;2023-12-07T00:04:26;20.40;;;18.10;;
11222;SDS011;5668;52.012;8.724;2023-12-07T00:06:53;20.40;;;17.93;;
11222;SDS011;5668;52.012;8.724;2023-12-07T00:09:21;20.37;;;17.80;;
11222;SDS011;5668;52.012;8.724;2023-12-07T00:11:49;22.43;;;18.33;;
11222;SDS011;5668;52.012;8.724;2023-12-07T00:14:16;21.97;;;18.67;;
11222;SDS011;5668;52.012;8.724;2023-12-07T00:16:43;21.90;;;19.17;;
11222;SDS011;5668;52.012;8.724;2023-12-07T00:19:10;22.67;;;19.10;;
11222;SDS011;5668;52.012;8.724;2023-12-07T00:21:38;19.73;;;16.67;;
11222;SDS011;5668;52.012;8.724;2023-12-07T00:24:05;21.67;;;18.00;;
11222;SDS011;5668;52.012;8.724;2023-12-07T00:26:34;20.30;;;17.33;;
11222;SDS011;5668;52.012;8.724;2023-12-07T00:29:03;19.93;;;17.80;;
11222;SDS011;5668;52.012;8.724;2023-12-07T00:31:30;23.70;;;18.47;;
11222;SDS011;5668;52.012;8.724;2023-12-07T00:33:57;21.77;;;17.63;;
11222;SDS011;5668;52.012;8.724;2023-12-07T00:36:25;19.80;;;17.57;;
11222;SDS011;5668;52.012;8.724;2023-12-07T00:38:52;21.93;;;18.03;;
11222;SDS011;5668;52.012;8.724;2023-12-07T00:41:20;22.80;;;18.27;;
11222;SDS011;5668;52.012;8.724;2023-12-07T00:43:49;20.90;;;17.93;;
11222;SDS011;5668;52.012;8.724;2023-12-07T00:46:16;19.57;;;17.47;;
11222;SDS011;5668;52.012;8.724;2023-12-07T00:48:43;23.50;;;18.90;;
11222;SDS011;5668;52.012;8.724;2023-12-07T00:51:11;22.10;;;17.73;;
11222;SDS011;5668;52.012;8.724;2023-12-07T00:53:38;22.57;;;18.83;;
11222;SDS011;5668;52.012;8.724;2023-12-07T00:56:06;21.00;;;17.87;;
11222;SDS011;5668;52.012;8.724;2023-12-07T00:58:34;22.83;;;18.13;;
11222;SDS011;5668;52.012;8.724;2023-12-07T01:01:04;23.83;;;18.47;;
11222;SDS011;5668;52.012;8.724;2023-12-07T01:03:33;24.83;;;19.40;;
11222;SDS011;5668;52.012;8.724;2023-12-07T01:06:00;22.23;;;18.43;;
11222;SDS011;5668;52.012;8.724;2023-12-07T01:08:28;22.33;;;18.60;;
11222;SDS011;5668;52.012;8.724;2023-12-07T01:10:55;20.23;;;18.07;;
11222;SDS011;5668;52.012;8.724;2023-12-07T01:13:22;20.77;;;17.67;;
11222;SDS011;5668;52.012;8.724;2023-12-07T01:15:50;21.90;;;18.37;;
11222;SDS011;5668;52.012;8.724;2023-12-07T01:18:18;22.27;;;18.60;;
11222;SDS011;5668;52.012;8.724;2023-12-07T01:20:46;21.33;;;18.33;;
11222;SDS011;5668;52.012;8.724;2023-12-07T01:23:13;22.30;;;19.10;;
11222;SDS011;5668;52.012;8.724;2023-12-07T01:25:40;22.80;;;19.87;;
11222;SDS011;5668;52.012;8.724;2023-12-07T01:28:08;21.83;;;19.30;;
11222;SDS011;5668;52.012;8.724;2023-12-07T01:30:35;23.63;;;18.90;;
11222;SDS011;5668;52.012;8.724;2023-12-07T01:33:02;24.13;;;19.87;;
11222;SDS011;5668;52.012;8.724;2023-12-07T01:35:31;22.87;;;19.20;;
11222;SDS011;5668;52.012;8.724;2023-12-07T01:37:58;22.13;;;19.10;;
11222;SDS011;5668;52.012;8.724;2023-12-07T01:40:25;24.17;;;19.57;;
11222;SDS011;5668;52.012;8.724;2023-12-07T01:42:53;25.23;;;19.70;;
11222;SDS011;5668;52.012;8.724;2023-12-07T01:45:20;24.47;;;20.17;;
11222;SDS011;5668;52.012;8.724;2023-12-07T01:47:48;21.90;;;18.80;;
11222;SDS011;5668;52.012;8.724;2023-12-07T01:50:17;23.37;;;19.60;;
11222;SDS011;5668;52.012;8.724;2023-12-07T01:52:51;22.10;;;19.47;;
11222;SDS011;5668;52.012;8.724;2023-12-07T01:55:22;24.60;;;18.70;;
11222;SDS011;5668;52.012;8.724;2023-12-07T01:57:51;21.47;;;19.07;;
11222;SDS011;5668;52.012;8.724;2023-12-07T02:00:19;26.50;;;19.40;;
11222;SDS011;5668;52.012;8.724;2023-12-07T02:02:46;24.00;;;18.43;;
11222;SDS011;5668;52.012;8.724;2023-12-07T02:05:14;22.10;;;18.17;;
11222;SDS011;5668;52.012;8.724;2023-12-07T02:07:42;23.23;;;19.43;;
11222;SDS011;5668;52.012;8.724;2023-12-07T02:10:12;25.97;;;19.77;;
11222;SDS011;5668;52.012;8.724;2023-12-07T02:12:40;24.43;;;20.13;;
11222;SDS011;5668;52.012;8.724;2023-12-07T02:15:08;24.97;;;19.57;;
11222;SDS011;5668;52.012;8.724;2023-12-07T02:17:38;26.23;;;20.80;;
11222;SDS011;5668;52.012;8.724;2023-12-07T02:20:17;22.83;;;19.77;;
11222;SDS011;5668;52.012;8.724;2023-12-07T02:22:52;25.90;;;20.70;;
11222;SDS011;5668;52.012;8.724;2023-12-07T02:25:23;24.43;;;20.03;;
11222;SDS011;5668;52.012;8.724;2023-12-07T02:27:56;23.33;;;19.07;;
11222;SDS011;5668;52.012;8.724;2023-12-07T02:30:24;25.87;;;20.47;;
11222;SDS011;5668;52.012;8.724;2023-12-07T02:32:51;25.17;;;20.07;;
11222;SDS011;5668;52.012;8.724;2023-12-07T02:35:18;24.67;;;19.80;;
11222;SDS011;5668;52.012;8.724;2023-12-07T02:37:47;23.27;;;19.07;;
11222;SDS011;5668;52.012;8.724;2023-12-07T02:40:17;21.70;;;19.30;;
11222;SDS011;5668;52.012;8.724;2023-12-07T02:42:47;23.03;;;18.97;;
11222;SDS011;5668;52.012;8.724;2023-12-07T02:45:17;22.43;;;18.50;;
11222;SDS011;5668;52.012;8.724;2023-12-07T02:47:44;22.13;;;18.43;;
11222;SDS011;5668;52.012;8.724;2023-12-07T02:50:12;23.17;;;19.43;;
11222;SDS011;5668;52.012;8.724;2023-12-07T02:52:40;24.77;;;18.77;;
11222;SDS011;5668;52.012;8.724;2023-12-07T02:55:08;22.60;;;18.47;;
11222;SDS011;5668;52.012;8.724;2023-12-07T02:57:35;24.10;;;18.80;;
11222;SDS011;5668;52.012;8.724;2023-12-07T03:02:48;20.13;;;17.20;;
11222;SDS011;5668;52.012;8.724;2023-12-07T03:05:16;21.17;;;17.47;;
11222;SDS011;5668;52.012;8.724;2023-12-07T03:07:45;21.83;;;17.57;;
11222;SDS011;5668;52.012;8.724;2023-12-07T03:10:13;21.17;;;17.63;;
11222;SDS011;5668;52.012;8.724;2023-12-07T03:12:41;21.13;;;17.70;;
11222;SDS011;5668;52.012;8.724;2023-12-07T03:15:08;21.40;;;17.37;;
11222;SDS011;5668;52.012;8.724;2023-12-07T03:17:35;21.43;;;17.50;;
11222;SDS011;5668;52.012;8.724;2023-12-07T03:20:05;25.20;;;18.90;;
11222;SDS011;5668;52.012;8.724;2023-12-07T03:22:35;23.60;;;18.30;;
11222;SDS011;5668;52.012;8.724;2023-12-07T03:25:02;21.93;;;18.30;;
11222;SDS011;5668;52.012;8.724;2023-12-07T03:27:30;22.67;;;17.60;;
11222;SDS011;5668;52.012;8.724;2023-12-07T03:29:58;20.83;;;17.80;;
11222;SDS011;5668;52.012;8.724;2023-12-07T03:32:25;20.93;;;17.90;;
11222;SDS011;5668;52.012;8.724;2023-12-07T03:34:52;20.47;;;17.30;;
11222;SDS011;5668;52.012;8.724;2023-12-07T03:37:21;20.53;;;17.07;;
11222;SDS011;5668;52.012;8.724;2023-12-07T03:39:48;20.23;;;18.03;;
11222;SDS011;5668;52.012;8.724;2023-12-07T03:42:16;20.97;;;18.03;;
11222;SDS011;5668;52.012;8.724;2023-12-07T03:44:43;20.30;;;17.40;;
11222;SDS011;5668;52.012;8.724;2023-12-07T03:47:11;20.93;;;17.83;;
11222;SDS011;5668;52.012;8.724;2023-12-07T03:49:38;23.60;;;18.03;;
11222;SDS011;5668;52.012;8.724;2023-12-07T03:52:06;20.93;;;17.43;;
11222;SDS011;5668;52.012;8.724;2023-12-07T03:54:35;20.57;;;17.10;;
11222;SDS011;5668;52.012;8.724;2023-12-07T03:57:02;21.07;;;17.60;;
11222;SDS011;5668;52.012;8.724;2023-12-07T03:59:30;21.07;;;16.83;;
11222;SDS011;5668;52.012;8.724;2023-12-07T04:01:58;18.90;;;16.03;;
11222;SDS011;5668;52.012;8.724;2023-12-07T04:04:25;20.70;;;17.17;;
11222;SDS011;5668;52.012;8.724;2023-12-07T04:06:52;20.83;;;17.20;;
11222;SDS011;5668;52.012;8.724;2023-12-07T04:09:20;20.60;;;17.37;;
11222;SDS011;5668;52.012;8.724;2023-12-07T04:11:48;20.57;;;17.20;;
11222;SDS011;5668;52.012;8.724;2023-12-07T04:14:16;22.63;;;18.33;;
11222;SDS011;5668;52.012;8.724;2023-12-07T04:16:43;24.47;;;18.23;;
11222;SDS011;5668;52.012;8.724;2023-12-07T04:19:10;23.97;;;18.73;;
11222;SDS011;5668;52.012;8.724;2023-12-07T04:21:39;25.80;;;20.53;;
11222;SDS011;5668;52.012;8.724;2023-12-07T04:24:07;26.93;;;19.87;;
11222;SDS011;5668;52.012;8.724;2023-12-07T04:26:34;28.07;;;20.83;;
11222;SDS011;5668;52.012;8.724;2023-12-07T04:29:02;25.93;;;20.57;;
11222;SDS011;5668;52.012;8.724;2023-12-07T04:31:30;26.27;;;20.57;;
11222;SDS011;5668;52.012;8.724;2023-12-07T04:33:57;21.63;;;19.23;;
11222;SDS011;5668;52.012;8.724;2023-12-07T04:36:25;24.27;;;19.37;;
11222;SDS011;5668;52.012;8.724;2023-12-07T04:38:52;22.87;;;19.37;;
11222;SDS011;5668;52.012;8.724;2023-12-07T04:41:19;22.33;;;19.20;;
11222;SDS011;5668;52.012;8.724;2023-12-07T04:43:46;24.27;;;18.60;;
11222;SDS011;5668;52.012;8.724;2023-12-07T04:46:15;22.20;;;18.10;;
11222;SDS011;5668;52.012;8.724;2023-12-07T04:48:42;24.23;;;19.27;;
11222;SDS011;5668;52.012;8.724;2023-12-07T04:51:10;22.27;;;19.77;;
11222;SDS011;5668;52.012;8.724;2023-12-07T04:53:37;25.27;;;20.83;;
11222;SDS011;5668;52.012;8.724;2023-12-07T04:56:05;27.70;;;21.87;;
11222;SDS011;5668;52.012;8.724;2023-12-07T04:58:33;27.43;;;21.60;;
11222;SDS011;5668;52.012;8.724;2023-12-07T05:01:00;29.97;;;22.57;;
11222;SDS011;5668;52.012;8.724;2023-12-07T05:03:31;27.23;;;21.03;;
11222;SDS011;5668;52.012;8.724;2023-12-07T05:05:58;26.83;;;21.83;;
11222;SDS011;5668;52.012;8.724;2023-12-07T05:08:26;27.10;;;22.27;;
11222;SDS011;5668;52.012;8.724;2023-12-07T05:10:53;30.40;;;22.30;;
11222;SDS011;5668;52.012;8.724;2023-12-07T05:13:21;27.83;;;20.83;;
11222;SDS011;5668;52.012;8.724;2023-12-07T05:15:48;30.00;;;21.90;;
11222;SDS011;5668;52.012;8.724;2023-12-07T05:18:15;27.13;;;21.37;;
11222;SDS011;5668;52.012;8.724;2023-12-07T05:20:44;28.53;;;21.87;;
11222;SDS011;5668;52.012;8.724;2023-12-07T05:23:11;26.87;;;21.23;;
11222;SDS011;5668;52.012;8.724;2023-12-07T05:25:38;27.80;;;22.43;;
11222;SDS011;5668;52.012;8.724;2023-12-07T05:28:06;28.10;;;21.77;;
11222;SDS011;5668;52.012;8.724;2023-12-07T05:30:33;29.00;;;22.77;;
11222;SDS011;5668;52.012;8.724;2023-12-07T05:33:01;27.47;;;22.37;;
11222;SDS011;5668;52.012;8.724;2023-12-07T05:35:29;28.83;;;22.20;;
11222;SDS011;5668;52.012;8.724;2023-12-07T05:37:58;28.33;;;23.23;;
11222;SDS011;5668;52.012;8.724;2023-12-07T05:40:25;29.13;;;22.73;;
11222;SDS011;5668;52.012;8.724;2023-12-07T05:42:53;27.80;;;21.93;;
11222;SDS011;5668;52.012;8.724;2023-12-07T05:45:20;29.13;;;22.97;;
11222;SDS011;5668;52.012;8.724;2023-12-07T05:47:47;28.00;;;21.83;;
11222;SDS011;5668;52.012;8.724;2023-12-07T05:50:15;27.90;;;22.37;;
11222;SDS011;5668;52.012;8.724;2023-12-07T05:52:43;28.70;;;22.23;;
11222;SDS011;5668;52.012;8.724;2023-12-07T05:55:12;27.00;;;21.97;;
11222;SDS011;5668;52.012;8.724;2023-12-07T05:57:39;28.97;;;22.17;;
11222;SDS011;5668;52.012;8.724;2023-12-07T06:00:07;31.87;;;22.83;;
11222;SDS011;5668;52.012;8.724;2023-12-07T06:02:36;28.60;;;22.03;;
11222;SDS011;5668;52.012;8.724;2023-12-07T06:05:03;29.97;;;22.30;;
11222;SDS011;5668;52.012;8.724;2023-12-07T06:07:31;30.77;;;23.53;;
11222;SDS011;5668;52.012;8.724;2023-12-07T06:09:59;27.70;;;22.37;;
11222;SDS011;5668;52.012;8.724;2023-12-07T06:12:27;32.57;;;23.13;;
11222;SDS011;5668;52.012;8.724;2023-12-07T06:14:55;29.67;;;23.50;;
11222;SDS011;5668;52.012;8.724;2023-12-07T06:17:22;31.47;;;24.07;;
11222;SDS011;5668;52.012;8.724;2023-12-07T06:19:49;29.80;;;23.10;;
11222;SDS011;5668;52.012;8.724;2023-12-07T06:22:17;30.60;;;23.13;;
11222;SDS011;5668;52.012;8.724;2023-12-07T06:24:44;31.30;;;23.17;;
11222;SDS011;5668;52.012;8.724;2023-12-07T06:27:11;33.20;;;24.47;;
11222;SDS011;5668;52.012;8.724;2023-12-07T06:29:40;35.10;;;25.80;;
11222;SDS011;5668;52.012;8.724;2023-12-07T06:32:07;35.00;;;25.80;;
11222;SDS011;5668;52.012;8.724;2023-12-07T06:34:39;35.53;;;25.23;;
11222;SDS011;5668;52.012;8.724;2023-12-07T06:37:07;33.33;;;24.93;;
11222;SDS011;5668;52.012;8.724;2023-12-07T06:39:35;35.50;;;25.97;;
11222;SDS011;5668;52.012;8.724;2023-12-07T06:42:03;32.60;;;25.50;;
11222;SDS011;5668;52.012;8.724;2023-12-07T06:44:30;36.57;;;26.50;;
11222;SDS011;5668;52.012;8.724;2023-12-07T06:46:59;36.53;;;26.00;;
11222;SDS011;5668;52.012;8.724;2023-12-07T06:49:28;34.43;;;24.80;;
11222;SDS011;5668;52.012;8.724;2023-12-07T06:51:55;37.37;;;26.13;;
11222;SDS011;5668;52.012;8.724;2023-12-07T06:54:32;32.77;;;25.70;;
11222;SDS011;5668;52.012;8.724;2023-12-07T06:57:00;38.03;;;25.60;;
11222;SDS011;5668;52.012;8.724;2023-12-07T06:59:28;38.37;;;27.20;;
11222;SDS011;5668;52.012;8.724;2023-12-07T07:01:56;33.70;;;24.77;;
11222;SDS011;5668;52.012;8.724;2023-12-07T07:04:25;35.00;;;25.67;;
11222;SDS011;5668;52.012;8.724;2023-12-07T07:06:52;37.03;;;25.80;;
11222;SDS011;5668;52.012;8.724;2023-12-07T07:09:19;35.80;;;25.53;;
11222;SDS011;5668;52.012;8.724;2023-12-07T07:11:47;37.17;;;25.73;;
11222;SDS011;5668;52.012;8.724;2023-12-07T07:14:14;35.83;;;25.63;;
11222;SDS011;5668;52.012;8.724;2023-12-07T07:16:42;38.90;;;26.47;;
11222;SDS011;5668;52.012;8.724;2023-12-07T07:19:11;40.93;;;27.67;;
11222;SDS011;5668;52.012;8.724;2023-12-07T07:21:39;38.77;;;27.20;;
11222;SDS011;5668;52.012;8.724;2023-12-07T07:24:06;37.37;;;25.90;;
11222;SDS011;5668;52.012;8.724;2023-12-07T07:26:34;40.13;;;27.10;;
11222;SDS011;5668;52.012;8.724;2023-12-07T07:29:01;39.47;;;27.63;;
11222;SDS011;5668;52.012;8.724;2023-12-07T07:31:28;41.60;;;27.50;;
11222;SDS011;5668;52.012;8.724;2023-12-07T07:33:56;39.80;;;26.73;;
11222;SDS011;5668;52.012;8.724;2023-12-07T07:36:24;42.60;;;27.47;;
11222;SDS011;5668;52.012;8.724;2023-12-07T07:38:52;47.03;;;29.67;;
11222;SDS011;5668;52.012;8.724;2023-12-07T07:41:19;42.93;;;28.23;;
11222;SDS011;5668;52.012;8.724;2023-12-07T07:43:46;43.17;;;29.03;;
11222;SDS011;5668;52.012;8.724;2023-12-07T07:46:13;45.43;;;28.67;;
11222;SDS011;5668;52.012;8.724;2023-12-07T07:48:41;47.03;;;29.10;;
11222;SDS011;5668;52.012;8.724;2023-12-07T07:51:08;45.10;;;29.03;;
11222;SDS011;5668;52.012;8.724;2023-12-07T07:53:37;47.07;;;28.40;;
11222;SDS011;5668;52.012;8.724;2023-12-07T07:56:04;44.77;;;28.03;;
11222;SDS011;5668;52.012;8.724;2023-12-07T07:58:32;48.80;;;27.63;;
11222;SDS011;5668;52.012;8.724;2023-12-07T08:00:59;47.30;;;28.93;;
11222;SDS011;5668;52.012;8.724;2023-12-07T08:03:27;46.63;;;28.37;;
11222;SDS011;5668;52.012;8.724;2023-12-07T08:05:54;41.40;;;26.87;;
11222;SDS011;5668;52.012;8.724;2023-12-07T08:08:21;42.77;;;26.53;;
11222;SDS011;5668;52.012;8.724;2023-12-07T08:10:52;46.33;;;28.67;;
11222;SDS011;5668;52.012;8.724;2023-12-07T08:13:19;46.43;;;28.97;;
11222;SDS011;5668;52.012;8.724;2023-12-07T08:15:47;43.07;;;27.23;;
11222;SDS011;5668;52.012;8.724;2023-12-07T08:18:14;45.83;;;27.73;;
11222;SDS011;5668;52.012;8.724;2023-12-07T08:20:41;42.87;;;27.70;;
11222;SDS011;5668;52.012;8.724;2023-12-07T08:23:09;43.13;;;27.93;;
11222;SDS011;5668;52.012;8.724;2023-12-07T08:25:38;43.50;;;26.47;;
11222;SDS011;5668;52.012;8.724;2023-12-07T08:28:06;41.63;;;25.73;;
11222;SDS011;5668;52.012;8.724;2023-12-07T08:30:34;41.10;;;25.73;;
11222;SDS011;5668;52.012;8.724;2023-12-07T08:33:02;38.77;;;25.10;;
11222;SDS011;5668;52.012;8.724;2023-12-07T08:35:29;41.23;;;25.93;;
11222;SDS011;5668;52.012;8.724;2023-12-07T08:37:56;40.27;;;25.77;;
11222;SDS011;5668;52.012;8.724;2023-12-07T08:40:24;36.07;;;25.07;;
11222;SDS011;5668;52.012;8.724;2023-12-07T08:42:51;39.27;;;24.53;;
11222;SDS011;5668;52.012;8.724;2023-12-07T08:45:22;36.73;;;23.33;;
11222;SDS011;5668;52.012;8.724;2023-12-07T08:47:49;37.20;;;23.83;;
11222;SDS011;5668;52.012;8.724;2023-12-07T08:50:17;37.27;;;24.20;;
11222;SDS011;5668;52.012;8.724;2023-12-07T08:52:45;40.43;;;24.43;;
11222;SDS011;5668;52.012;8.724;2023-12-07T08:55:12;38.27;;;25.57;;
11222;SDS011;5668;52.012;8.724;2023-12-07T08:57:41;39.63;;;26.07;;
11222;SDS011;5668;52.012;8.724;2023-12-07T09:00:09;41.40;;;26.03;;
11222;SDS011;5668;52.012;8.724;2023-12-07T09:02:39;43.07;;;27.93;;
11222;SDS011;5668;52.012;8.724;2023-12-07T09:05:07;37.47;;;25.43;;
11222;SDS011;5668;52.012;8.724;2023-12-07T09:07:35;38.53;;;26.37;;
11222;SDS011;5668;52.012;8.724;2023-12-07T09:10:02;42.30;;;26.53;;
11222;SDS011;5668;52.012;8.724;2023-12-07T09:12:32;39.67;;;25.60;;
11222;SDS011;5668;52.012;8.724;2023-12-07T09:15:00;38.63;;;25.57;;
11222;SDS011;5668;52.012;8.724;2023-12-07T09:17:28;37.10;;;24.67;;
11222;SDS011;5668;52.012;8.724;2023-12-07T09:19:57;37.13;;;25.70;;
11222;SDS011;5668;52.012;8.724;2023-12-07T09:22:24;35.30;;;23.80;;
11222;SDS011;5668;52.012;8.724;2023-12-07T09:24:51;38.20;;;24.00;;
11222;SDS011;5668;52.012;8.724;2023-12-07T09:27:18;34.33;;;24.23;;
11222;SDS011;5668;52.012;8.724;2023-12-07T09:29:46;34.40;;;23.43;;
11222;SDS011;5668;52.012;8.724;2023-12-07T09:32:13;34.67;;;22.83;;
11222;SDS011;5668;52.012;8.724;2023-12-07T09:34:40;34.93;;;25.43;;
11222;SDS011;5668;52.012;8.724;2023-12-07T09:37:09;38.00;;;25.47;;
11222;SDS011;5668;52.012;8.724;2023-12-07T09:39:36;36.27;;;24.50;;
11222;SDS011;5668;52.012;8.724;2023-12-07T09:42:04;34.77;;;22.53;;
11222;SDS011;5668;52.012;8.724;2023-12-07T09:44:32;35.90;;;23.87;;
11222;SDS011;5668;52.012;8.724;2023-12-07T09:46:59;33.53;;;21.93;;
11222;SDS011;5668;52.012;8.724;2023-12-07T09:49:26;31.67;;;22.30;;
11222;SDS011;5668;52.012;8.724;2023-12-07T09:51:55;31.77;;;22.70;;
11222;SDS011;5668;52.012;8.724;2023-12-07T09:54:26;32.77;;;22.53;;
11222;SDS011;5668;52.012;8.724;2023-12-07T09:56:54;32.43;;;22.03;;
11222;SDS011;5668;52.012;8.724;2023-12-07T09:59:22;29.23;;;21.83;;
11222;SDS011;5668;52.012;8.724;2023-12-07T10:01:49;32.17;;;22.13;;
11222;SDS011;5668;52.012;8.724;2023-12-07T10:04:17;33.23;;;22.73;;
11222;SDS011;5668;52.012;8.724;2023-12-07T10:06:47;32.83;;;23.20;;
11222;SDS011;5668;52.012;8.724;2023-12-07T10:09:15;32.43;;;22.93;;
11222;SDS011;5668;52.012;8.724;2023-12-07T10:11:45;29.43;;;21.77;;
11222;SDS011;5668;52.012;8.724;2023-12-07T10:14:13;29.37;;;21.60;;
11222;SDS011;5668;52.012;8.724;2023-12-07T10:16:46;31.33;;;22.90;;
11222;SDS011;5668;52.012;8.724;2023-12-07T10:19:20;30.87;;;23.47;;
11222;SDS011;5668;52.012;8.724;2023-12-07T10:21:48;31.20;;;22.77;;
11222;SDS011;5668;52.012;8.724;2023-12-07T10:24:16;25.67;;;20.80;;
11222;SDS011;5668;52.012;8.724;2023-12-07T10:26:46;29.53;;;21.63;;
11222;SDS011;5668;52.012;8.724;2023-12-07T10:29:14;32.60;;;22.03;;
11222;SDS011;5668;52.012;8.724;2023-12-07T10:31:43;31.83;;;21.83;;
11222;SDS011;5668;52.012;8.724;2023-12-07T10:34:12;28.70;;;20.80;;
11222;SDS011;5668;52.012;8.724;2023-12-07T10:36:44;26.37;;;20.17;;
11222;SDS011;5668;52.012;8.724;2023-12-07T10:39:12;27.10;;;20.17;;
11222;SDS011;5668;52.012;8.724;2023-12-07T10:41:40;29.03;;;20.47;;
11222;SDS011;5668;52.012;8.724;2023-12-07T10:44:13;28.67;;;20.17;;
11222;SDS011;5668;52.012;8.724;2023-12-07T10:46:42;27.80;;;19.80;;
11222;SDS011;5668;52.012;8.724;2023-12-07T10:49:11;27.20;;;21.17;;
11222;SDS011;5668;52.012;8.724;2023-12-07T10:51:45;29.30;;;20.97;;
11222;SDS011;5668;52.012;8.724;2023-12-07T10:54:16;26.90;;;19.83;;
11222;SDS011;5668;52.012;8.724;2023-12-07T10:56:48;27.57;;;20.67;;
11222;SDS011;5668;52.012;8.724;2023-12-07T10:59:17;28.27;;;20.77;;
11222;SDS011;5668;52.012;8.724;2023-12-07T11:01:45;27.57;;;20.07;;
11222;SDS011;5668;52.012;8.724;2023-12-07T11:04:14;26.27;;;20.27;;
11222;SDS011;5668;52.012;8.724;2023-12-07T11:06:42;29.33;;;20.77;;
11222;SDS011;5668;52.012;8.724;2023-12-07T11:09:16;24.43;;;19.57;;
11222;SDS011;5668;52.012;8.724;2023-12-07T11:11:51;24.47;;;18.97;;
11222;SDS011;5668;52.012;8.724;2023-12-07T11:14:24;24.83;;;18.67;;
11222;SDS011;5668;52.012;8.724;2023-12-07T11:16:52;26.27;;;19.33;;
11222;SDS011;5668;52.012;8.724;2023-12-07T11:22:15;23.83;;;18.57;;
11222;SDS011;5668;52.012;8.724;2023-12-07T11:27:29;24.13;;;18.03;;
11222;SDS011;5668;52.012;8.724;2023-12-07T11:29:59;24.50;;;18.17;;
11222;SDS011;5668;52.012;8.724;2023-12-07T11:32:28;24.87;;;19.03;;
11222;SDS011;5668;52.012;8.724;2023-12-07T11:34:59;22.73;;;17.03;;
11222;SDS011;5668;52.012;8.724;2023-12-07T11:37:59;26.20;;;18.50;;
11222;SDS011;5668;52.012;8.724;2023-12-07T11:40:31;24.67;;;18.40;;
11222;SDS011;5668;52.012;8.724;2023-12-07T11:43:01;25.07;;;19.13;;
11222;SDS011;5668;52.012;8.724;2023-12-07T11:45:38;23.57;;;17.37;;
11222;SDS011;5668;52.012;8.724;2023-12-07T11:48:07;23.43;;;17.90;;
11222;SDS011;5668;52.012;8.724;2023-12-07T11:50:34;22.77;;;17.90;;
11222;SDS011;5668;52.012;8.724;2023-12-07T11:53:02;22.27;;;17.37;;
11222;SDS011;5668;52.012;8.724;2023-12-07T11:55:31;23.50;;;17.43;;
11222;SDS011;5668;52.012;8.724;2023-12-07T11:57:59;21.80;;;17.27;;
11222;SDS011;5668;52.012;8.724;2023-12-07T12:00:26;23.03;;;18.07;;
11222;SDS011;5668;52.012;8.724;2023-12-07T12:02:55;24.53;;;16.90;;
11222;SDS011;5668;52.012;8.724;2023-12-07T12:05:23;22.43;;;18.47;;
11222;SDS011;5668;52.012;8.724;2023-12-07T12:07:51;22.47;;;17.17;;
11222;SDS011;5668;52.012;8.724;2023-12-07T12:10:18;21.97;;;16.33;;
11222;SDS011;5668;52.012;8.724;2023-12-07T12:12:49;21.60;;;16.10;;
11222;SDS011;5668;52.012;8.724;2023-12-07T12:15:16;18.40;;;15.60;;
11222;SDS011;5668;52.012;8.724;2023-12-07T12:17:45;20.50;;;16.20;;
11222;SDS011;5668;52.012;8.724;2023-12-07T12:20:14;18.33;;;15.10;;
11222;SDS011;5668;52.012;8.724;2023-12-07T12:22:43;17.33;;;14.83;;
11222;SDS011;5668;52.012;8.724;2023-12-07T12:25:10;18.20;;;14.70;;
11222;SDS011;5668;52.012;8.724;2023-12-07T12:27:38;15.23;;;13.57;;
11222;SDS011;5668;52.012;8.724;2023-12-07T12:30:06;16.90;;;13.40;;
11222;SDS011;5668;52.012;8.724;2023-12-07T12:32:41;15.10;;;12.77;;
11222;SDS011;5668;52.012;8.724;2023-12-07T12:35:09;15.00;;;12.60;;
11222;SDS011;5668;52.012;8.724;2023-12-07T12:37:39;13.43;;;11.83;;
11222;SDS011;5668;52.012;8.724;2023-12-07T12:40:08;15.13;;;11.83;;
11222;SDS011;5668;52.012;8.724;2023-12-07T12:42:38;13.50;;;11.53;;
11222;SDS011;5668;52.012;8.724;2023-12-07T12:45:07;14.17;;;11.80;;
11222;SDS011;5668;52.012;8.724;2023-12-07T12:47:35;12.57;;;11.03;;
11222;SDS011;5668;52.012;8.724;2023-12-07T12:50:04;13.80;;;12.03;;
11222;SDS011;5668;52.012;8.724;2023-12-07T12:52:34;14.27;;;12.07;;
11222;SDS011;5668;52.012;8.724;2023-12-07T12:55:07;14.63;;;12.27;;
11222;SDS011;5668;52.012;8.724;2023-12-07T12:57:36;14.87;;;12.60;;
11222;SDS011;5668;52.012;8.724;2023-12-07T13:00:04;16.37;;;12.90;;
11222;SDS011;5668;52.012;8.724;2023-12-07T13:02:33;13.87;;;12.17;;
11222;SDS011;5668;52.012;8.724;2023-12-07T13:05:00;15.07;;;12.70;;
11222;SDS011;5668;52.012;8.724;2023-12-07T13:07:29;14.07;;;12.00;;
11222;SDS011;5668;52.012;8.724;2023-12-07T13:09:56;14.67;;;12.23;;
11222;SDS011;5668;52.012;8.724;2023-12-07T13:12:25;14.07;;;12.57;;
11222;SDS011;5668;52.012;8.724;2023-12-07T13:14:53;15.67;;;12.37;;
11222;SDS011;5668;52.012;8.724;2023-12-07T13:17:20;14.00;;;11.50;;
11222;SDS011;5668;52.012;8.724;2023-12-07T13:19:49;13.83;;;11.70;;
11222;SDS011;5668;52.012;8.724;2023-12-07T13:22:16;11.90;;;10.20;;
11222;SDS011;5668;52.012;8.724;2023-12-07T13:24:45;12.63;;;10.90;;
11222;SDS011;5668;52.012;8.724;2023-12-07T13:27:14;12.37;;;11.00;;
11222;SDS011;5668;52.012;8.724;2023-12-07T13:29:44;14.20;;;11.30;;
11222;SDS011;5668;52.012;8.724;2023-12-07T13:32:11;11.33;;;10.13;;
11222;SDS011;5668;52.012;8.724;2023-12-07T13:34:38;12.07;;;10.83;;
11222;SDS011;5668;52.012;8.724;2023-12-07T13:37:06;12.90;;;11.43;;
11222;SDS011;5668;52.012;8.724;2023-12-07T13:39:34;15.90;;;12.40;;
11222;SDS011;5668;52.012;8.724;2023-12-07T13:42:01;12.67;;;11.37;;
11222;SDS011;5668;52.012;8.724;2023-12-07T13:44:29;13.57;;;10.47;;
11222;SDS011;5668;52.012;8.724;2023-12-07T13:46:59;13.80;;;11.47;;
11222;SDS011;5668;52.012;8.724;2023-12-07T13:49:26;12.67;;;11.20;;
11222;SDS011;5668;52.012;8.724;2023-12-07T13:51:53;13.90;;;11.13;;
11222;SDS011;5668;52.012;8.724;2023-12-07T13:54:20;13.07;;;10.33;;
11222;SDS011;5668;52.012;8.724;2023-12-07T13:56:48;12.77;;;11.30;;
11222;SDS011;5668;52.012;8.724;2023-12-07T13:59:15;13.10;;;10.87;;
11222;SDS011;5668;52.012;8.724;2023-12-07T14:01:42;12.87;;;10.97;;
11222;SDS011;5668;52.012;8.724;2023-12-07T14:04:11;14.40;;;11.30;;
11222;SDS011;5668;52.012;8.724;2023-12-07T14:06:38;12.73;;;11.00;;
11222;SDS011;5668;52.012;8.724;2023-12-07T14:09:06;14.10;;;11.33;;
11222;SDS011;5668;52.012;8.724;2023-12-07T14:11:33;13.60;;;11.63;;
11222;SDS011;5668;52.012;8.724;2023-12-07T14:14:00;12.93;;;11.40;;
11222;SDS011;5668;52.012;8.724;2023-12-07T14:16:28;13.13;;;11.23;;
11222;SDS011;5668;52.012;8.724;2023-12-07T14:18:56;14.40;;;11.73;;
11222;SDS011;5668;52.012;8.724;2023-12-07T14:21:24;13.83;;;11.50;;
11222;SDS011;5668;52.012;8.724;2023-12-07T14:23:51;13.77;;;11.43;;
11222;SDS011;5668;52.012;8.724;2023-12-07T14:26:20;13.53;;;11.90;;
11222;SDS011;5668;52.012;8.724;2023-12-07T14:28:47;13.47;;;11.47;;
11222;SDS011;5668;52.012;8.724;2023-12-07T14:31:14;13.07;;;10.87;;
11222;SDS011;5668;52.012;8.724;2023-12-07T14:33:43;14.77;;;11.37;;
11222;SDS011;5668;52.012;8.724;2023-12-07T14:36:10;14.90;;;11.67;;
11222;SDS011;5668;52.012;8.724;2023-12-07T14:38:39;11.67;;;10.43;;
11222;SDS011;5668;52.012;8.724;2023-12-07T14:41:08;12.33;;;10.90;;
11222;SDS011;5668;52.012;8.724;2023-12-07T14:43:37;13.17;;;11.20;;
11222;SDS011;5668;52.012;8.724;2023-12-07T14:46:05;14.70;;;12.37;;
11222;SDS011;5668;52.012;8.724;2023-12-07T14:48:33;14.67;;;11.73;;